createdAt,value
2016-12-30T00:00:24.277Z,80.25
2016-12-30T00:00:50.380Z,79.96
2016-12-30T00:01:16.473Z,79.77
2016-12-30T00:01:42.554Z,79.68
2016-12-30T00:02:08.662Z,79.87
2016-12-30T00:02:34.757Z,79.87
2016-12-30T00:03:00.841Z,79.58
2016-12-30T00:03:26.940Z,79.58
2016-12-30T00:03:53.039Z,79.68
2016-12-30T00:04:19.122Z,80.15
2016-12-30T00:04:45.221Z,79.87
2016-12-30T00:05:11.321Z,79.87
2016-12-30T00:05:37.411Z,80.53
2016-12-30T00:06:03.510Z,79.68
2016-12-30T00:06:29.596Z,79.77
2016-12-30T00:06:55.697Z,80.34
2016-12-30T00:07:21.798Z,80.44
2016-12-30T00:07:47.886Z,80.44
2016-12-30T00:08:13.987Z,80.15
2016-12-30T00:08:40.086Z,80.25
2016-12-30T00:09:06.169Z,80.63
2016-12-30T00:09:32.266Z,80.44
2016-12-30T00:09:58.372Z,80.44
2016-12-30T00:10:24.458Z,80.63
2016-12-30T00:10:50.554Z,80.72
2016-12-30T00:11:16.653Z,80.44
2016-12-30T00:11:42.744Z,80.53
2016-12-30T00:12:08.853Z,80.44
2016-12-30T00:12:34.930Z,80.34
2016-12-30T00:13:01.027Z,80.15
2016-12-30T00:13:27.127Z,80.34
2016-12-30T00:13:53.216Z,80.34
2016-12-30T00:14:19.305Z,80.53
2016-12-30T00:14:45.412Z,80.25
2016-12-30T00:15:11.498Z,80.44
2016-12-30T00:15:37.582Z,80.34
2016-12-30T00:16:03.693Z,80.63
2016-12-30T00:16:29.788Z,80.49
2016-12-30T00:16:55.887Z,80.77
2016-12-30T00:17:21.980Z,80.15
2016-12-30T00:17:48.078Z,80.49
2016-12-30T00:18:14.176Z,80.63
2016-12-30T00:18:40.263Z,81.06
2016-12-30T00:19:06.346Z,80.91
2016-12-30T00:19:32.454Z,80.77
2016-12-30T00:19:58.552Z,80.21
2016-12-30T00:20:24.636Z,80.3
2016-12-30T00:20:50.742Z,80.3
2016-12-30T00:21:16.836Z,80.49
2016-12-30T00:21:42.925Z,80.3
2016-12-30T00:22:09.024Z,80.68
2016-12-30T00:22:35.133Z,80.4
2016-12-30T00:23:01.218Z,80.58
2016-12-30T00:23:27.312Z,80.11
2016-12-30T00:23:53.404Z,80.4
2016-12-30T00:24:19.508Z,80.77
2016-12-30T00:24:45.608Z,80.77
2016-12-30T00:25:11.692Z,81.15
2016-12-30T00:25:37.791Z,81.15
2016-12-30T00:26:03.895Z,81.34
2016-12-30T00:26:29.980Z,81.06
2016-12-30T00:26:56.077Z,81.06
2016-12-30T00:27:22.186Z,81.25
2016-12-30T00:27:48.280Z,81.25
2016-12-30T00:28:14.378Z,81.34
2016-12-30T00:28:40.477Z,81.34
2016-12-30T00:29:06.573Z,81.15
2016-12-30T00:29:32.671Z,81.34
2016-12-30T00:29:58.753Z,80.87
2016-12-30T00:30:24.852Z,81.06
2016-12-30T00:30:50.957Z,80.58
2016-12-30T00:31:17.042Z,81.06
2016-12-30T00:31:43.133Z,80.77
2016-12-30T00:32:09.238Z,80.87
2016-12-30T00:32:35.327Z,80.68
2016-12-30T00:33:01.416Z,80.58
2016-12-30T00:33:27.530Z,80.11
2016-12-30T00:33:53.614Z,80.3
2016-12-30T00:34:19.712Z,80.21
2016-12-30T00:34:45.804Z,81.06
2016-12-30T00:35:11.922Z,80.3
2016-12-30T00:35:38.027Z,80.21
2016-12-30T00:36:04.112Z,80.49
2016-12-30T00:36:30.196Z,80.87
2016-12-30T00:36:56.307Z,80.77
2016-12-30T00:37:22.402Z,80.11
2016-12-30T00:37:48.489Z,80.21
2016-12-30T00:38:14.592Z,80.02
2016-12-30T00:38:40.691Z,80.3
2016-12-30T00:39:06.778Z,80.4
2016-12-30T00:39:32.882Z,80.3
2016-12-30T00:39:59.009Z,80.3
2016-12-30T00:40:25.091Z,80.11
2016-12-30T00:40:51.194Z,80.58
2016-12-30T00:41:17.294Z,80.3
2016-12-30T00:41:43.377Z,80.15
2016-12-30T00:42:09.463Z,80.15
2016-12-30T00:42:35.572Z,80.21
2016-12-30T00:43:01.661Z,80.25
2016-12-30T00:43:27.754Z,80.34
2016-12-30T00:43:53.855Z,80.34
2016-12-30T00:44:19.956Z,80.34
2016-12-30T00:44:46.048Z,80.82
2016-12-30T00:45:12.150Z,80.49
2016-12-30T00:45:38.242Z,80.3
2016-12-30T00:46:04.343Z,80.34
2016-12-30T00:46:30.434Z,80.44
2016-12-30T00:46:56.519Z,80.72
2016-12-30T00:47:22.631Z,80.63
2016-12-30T00:47:48.725Z,80.53
2016-12-30T00:48:14.804Z,80.34
2016-12-30T00:48:40.905Z,80.53
2016-12-30T00:49:07.002Z,80.72
2016-12-30T00:49:33.088Z,80.58
2016-12-30T00:49:59.188Z,80.53
2016-12-30T00:50:25.297Z,80.49
2016-12-30T00:50:51.385Z,80.53
2016-12-30T00:51:17.479Z,80.49
2016-12-30T00:51:43.569Z,80.49
2016-12-30T00:52:09.670Z,80.4
2016-12-30T00:52:35.769Z,80.4
2016-12-30T00:53:01.851Z,80.02
2016-12-30T00:53:27.952Z,80.4
2016-12-30T00:53:54.050Z,80.77
2016-12-30T00:54:20.140Z,80.96
2016-12-30T00:54:46.233Z,81.15
2016-12-30T00:55:12.336Z,80.96
2016-12-30T00:55:38.428Z,81.44
2016-12-30T00:56:04.520Z,81.25
2016-12-30T00:56:30.616Z,81.53
2016-12-30T00:56:56.712Z,82.1
2016-12-30T00:57:22.814Z,82.01
2016-12-30T00:57:48.894Z,81.72
2016-12-30T00:58:14.993Z,81.63
2016-12-30T00:58:41.103Z,81.53
2016-12-30T00:59:07.188Z,81.44
2016-12-30T00:59:33.279Z,81.63
2016-12-30T00:59:59.382Z,81.82
2016-12-30T01:00:25.477Z,82.29
2016-12-30T01:00:51.558Z,82.01
2016-12-30T01:01:17.671Z,82.29
2016-12-30T01:01:43.765Z,82.67
2016-12-30T01:02:09.859Z,82.01
2016-12-30T01:02:35.959Z,81.53
2016-12-30T01:03:02.055Z,81.72
2016-12-30T01:03:28.138Z,81.82
2016-12-30T01:03:54.242Z,81.72
2016-12-30T01:04:20.348Z,81.44
2016-12-30T01:04:46.429Z,82.1
2016-12-30T01:05:12.530Z,82.29
2016-12-30T01:05:38.629Z,81.92
2016-12-30T01:06:04.716Z,82.29
2016-12-30T01:06:30.807Z,82.2
2016-12-30T01:06:56.910Z,82.1
2016-12-30T01:07:22.997Z,82.39
2016-12-30T01:07:49.101Z,81.92
2016-12-30T01:08:15.189Z,82.39
2016-12-30T01:08:41.285Z,82.29
2016-12-30T01:09:07.391Z,82.39
2016-12-30T01:09:33.474Z,82.29
2016-12-30T01:09:59.565Z,82.01
2016-12-30T01:10:25.673Z,82.67
2016-12-30T01:10:51.763Z,82.48
2016-12-30T01:11:17.854Z,82.57
2016-12-30T01:11:43.960Z,82.57
2016-12-30T01:12:10.051Z,82.76
2016-12-30T01:12:36.142Z,83.24
2016-12-30T01:13:02.243Z,83.05
2016-12-30T01:13:28.336Z,82.57
2016-12-30T01:13:54.435Z,82.57
2016-12-30T01:14:20.524Z,82.29
2016-12-30T01:14:46.608Z,82.39
2016-12-30T01:15:12.721Z,82.53
2016-12-30T01:15:38.818Z,82.39
2016-12-30T01:16:04.902Z,82.82
2016-12-30T01:16:31.004Z,82.48
2016-12-30T01:16:57.102Z,82.63
2016-12-30T01:17:23.189Z,82.91
2016-12-30T01:17:49.287Z,82.63
2016-12-30T01:18:15.390Z,82.76
2016-12-30T01:18:41.476Z,82.76
2016-12-30T01:19:07.563Z,82.39
2016-12-30T01:19:33.659Z,82.48
2016-12-30T01:19:59.762Z,82.57
2016-12-30T01:20:25.863Z,82.39
2016-12-30T01:20:51.948Z,82.95
2016-12-30T01:21:18.045Z,82.57
2016-12-30T01:21:44.150Z,82.2
2016-12-30T01:22:10.227Z,82.29
2016-12-30T01:22:36.323Z,82.39
2016-12-30T01:23:02.429Z,82.39
2016-12-30T01:23:28.514Z,82.01
2016-12-30T01:23:54.604Z,81.53
2016-12-30T01:24:20.707Z,81.82
2016-12-30T01:24:46.803Z,82.01
2016-12-30T01:25:12.889Z,81.72
2016-12-30T01:25:38.995Z,81.25
2016-12-30T01:26:05.085Z,81.25
2016-12-30T01:26:31.167Z,81.44
2016-12-30T01:26:57.276Z,81.82
2016-12-30T01:27:23.373Z,81.72
2016-12-30T01:27:49.460Z,81.72
2016-12-30T01:28:15.556Z,81.72
2016-12-30T01:28:41.658Z,81.63
2016-12-30T01:29:07.745Z,81.82
2016-12-30T01:29:33.838Z,81.72
2016-12-30T01:29:59.932Z,81.63
2016-12-30T01:30:26.035Z,82.1
2016-12-30T01:30:52.130Z,81.63
2016-12-30T01:31:18.216Z,81.53
2016-12-30T01:31:44.320Z,81.25
2016-12-30T01:32:10.427Z,81.44
2016-12-30T01:32:36.508Z,80.96
2016-12-30T01:33:02.612Z,81.06
2016-12-30T01:33:28.713Z,81.25
2016-12-30T01:33:54.800Z,81.06
2016-12-30T01:34:20.894Z,81.34
2016-12-30T01:34:46.996Z,80.77
2016-12-30T01:35:13.082Z,80.77
2016-12-30T01:35:39.182Z,80.77
2016-12-30T01:36:05.268Z,80.77
2016-12-30T01:36:31.367Z,80.87
2016-12-30T01:36:57.468Z,81.34
2016-12-30T01:37:23.551Z,81.15
2016-12-30T01:37:49.645Z,81.25
2016-12-30T01:38:15.747Z,81.25
2016-12-30T01:38:41.836Z,81.34
2016-12-30T01:39:07.923Z,81.25
2016-12-30T01:39:34.029Z,81.44
2016-12-30T01:40:00.121Z,82.01
2016-12-30T01:40:26.213Z,81.53
2016-12-30T01:40:52.312Z,81.44
2016-12-30T01:41:18.407Z,81.82
2016-12-30T01:41:44.508Z,81.82
2016-12-30T01:42:10.593Z,82.01
2016-12-30T01:42:36.678Z,82.01
2016-12-30T01:43:02.785Z,81.72
2016-12-30T01:43:28.884Z,82.1
2016-12-30T01:43:54.967Z,81.82
2016-12-30T01:44:21.076Z,81.44
2016-12-30T01:44:47.170Z,81.53
2016-12-30T01:45:13.259Z,81.53
2016-12-30T01:45:39.353Z,81.34
2016-12-30T01:46:05.454Z,81.53
2016-12-30T01:46:31.547Z,81.34
2016-12-30T01:46:57.641Z,81.34
2016-12-30T01:47:23.728Z,81.06
2016-12-30T01:47:49.836Z,80.87
2016-12-30T01:48:15.934Z,81.15
2016-12-30T01:48:42.023Z,80.49
2016-12-30T01:49:08.115Z,80.87
2016-12-30T01:49:34.222Z,80.87
2016-12-30T01:50:00.301Z,80.87
2016-12-30T01:50:26.401Z,80.87
2016-12-30T01:50:52.500Z,80.87
2016-12-30T01:51:18.591Z,80.68
2016-12-30T01:51:44.684Z,81.25
2016-12-30T01:52:10.774Z,80.58
2016-12-30T01:52:36.869Z,80.77
2016-12-30T01:53:02.972Z,81.06
2016-12-30T01:53:29.054Z,80.77
2016-12-30T01:53:55.143Z,81.06
2016-12-30T01:54:21.246Z,81.34
2016-12-30T01:54:47.332Z,81.15
2016-12-30T01:55:13.421Z,81.15
2016-12-30T01:55:39.560Z,80.68
2016-12-30T01:56:05.646Z,80.77
2016-12-30T01:56:31.735Z,80.87
2016-12-30T01:56:57.840Z,80.68
2016-12-30T01:57:23.932Z,80.87
2016-12-30T01:57:50.032Z,80.77
2016-12-30T01:58:16.126Z,80.96
2016-12-30T01:58:42.225Z,80.49
2016-12-30T01:59:08.327Z,80.96
2016-12-30T01:59:34.420Z,80.87
2016-12-30T02:00:00.509Z,81.25
2016-12-30T02:00:26.619Z,81.44
2016-12-30T02:00:52.711Z,80.96
2016-12-30T02:01:18.793Z,81.06
2016-12-30T02:01:44.897Z,81.25
2016-12-30T02:02:10.992Z,81.15
2016-12-30T02:02:37.079Z,80.96
2016-12-30T02:03:03.183Z,80.77
2016-12-30T02:03:29.268Z,80.96
2016-12-30T02:03:55.370Z,80.77
2016-12-30T02:04:21.466Z,80.68
2016-12-30T02:04:47.554Z,80.49
2016-12-30T02:05:13.655Z,80.96
2016-12-30T02:05:39.747Z,80.77
2016-12-30T02:06:05.835Z,80.58
2016-12-30T02:06:31.930Z,80.87
2016-12-30T02:06:58.038Z,80.87
2016-12-30T02:07:24.118Z,80.96
2016-12-30T02:07:50.217Z,80.87
2016-12-30T02:08:16.317Z,80.49
2016-12-30T02:08:42.403Z,80.77
2016-12-30T02:09:08.490Z,81.34
2016-12-30T02:09:34.593Z,80.96
2016-12-30T02:10:00.679Z,81.53
2016-12-30T02:10:26.766Z,81.34
2016-12-30T02:10:52.874Z,81.44
2016-12-30T02:11:18.968Z,81.53
2016-12-30T02:11:45.049Z,81.53
2016-12-30T02:12:11.160Z,81.34
2016-12-30T02:12:37.254Z,81.34
2016-12-30T02:13:03.343Z,81.15
2016-12-30T02:13:29.435Z,80.68
2016-12-30T02:13:55.536Z,81.25
2016-12-30T02:14:21.630Z,80.87
2016-12-30T02:14:47.722Z,80.96
2016-12-30T02:15:13.812Z,81.06
2016-12-30T02:15:39.914Z,80.87
2016-12-30T02:16:06.019Z,81.15
2016-12-30T02:16:32.097Z,80.87
2016-12-30T02:16:58.199Z,80.4
2016-12-30T02:17:24.303Z,80.77
2016-12-30T02:17:50.379Z,80.96
2016-12-30T02:18:16.476Z,81.06
2016-12-30T02:18:42.577Z,80.96
2016-12-30T02:19:08.665Z,80.87
2016-12-30T02:19:34.762Z,81.21
2016-12-30T02:20:00.854Z,81.06
2016-12-30T02:20:26.952Z,81.34
2016-12-30T02:20:53.061Z,81.3
2016-12-30T02:21:19.141Z,81.21
2016-12-30T02:21:45.238Z,82.15
2016-12-30T02:22:11.340Z,81.59
2016-12-30T02:22:37.426Z,81.82
2016-12-30T02:23:03.517Z,81.72
2016-12-30T02:23:29.621Z,82.25
2016-12-30T02:23:55.713Z,82.06
2016-12-30T02:24:21.803Z,81.72
2016-12-30T02:24:47.906Z,81.82
2016-12-30T02:25:13.995Z,82.2
2016-12-30T02:25:40.097Z,81.63
2016-12-30T02:26:06.182Z,81.63
2016-12-30T02:26:32.271Z,81.53
2016-12-30T02:26:58.380Z,81.87
2016-12-30T02:27:24.467Z,82.29
2016-12-30T02:27:50.574Z,82.2
2016-12-30T02:28:16.679Z,82.01
2016-12-30T02:28:42.776Z,81.92
2016-12-30T02:29:08.857Z,82.57
2016-12-30T02:29:34.961Z,82.63
2016-12-30T02:30:01.050Z,82.15
2016-12-30T02:30:27.140Z,82.15
2016-12-30T02:30:53.242Z,82.63
2016-12-30T02:31:19.322Z,82.57
2016-12-30T02:31:45.434Z,82.57
2016-12-30T02:32:11.524Z,82.67
2016-12-30T02:32:37.614Z,82.57
2016-12-30T02:33:03.713Z,82.57
2016-12-30T02:33:29.810Z,82.2
2016-12-30T02:33:55.896Z,82.29
2016-12-30T02:34:21.998Z,81.72
2016-12-30T02:34:48.102Z,81.63
2016-12-30T02:35:14.184Z,81.72
2016-12-30T02:35:40.280Z,81.44
2016-12-30T02:36:06.389Z,82.01
2016-12-30T02:36:32.472Z,81.63
2016-12-30T02:36:58.570Z,81.53
2016-12-30T02:37:24.649Z,81.63
2016-12-30T02:37:50.756Z,81.34
2016-12-30T02:38:16.879Z,81.72
2016-12-30T02:38:42.966Z,82.01
2016-12-30T02:39:09.062Z,82.01
2016-12-30T02:39:35.170Z,82.1
2016-12-30T02:40:01.251Z,81.34
2016-12-30T02:40:27.351Z,81.63
2016-12-30T02:40:53.454Z,81.53
2016-12-30T02:41:19.541Z,81.72
2016-12-30T02:41:45.628Z,82.01
2016-12-30T02:42:11.729Z,81.72
2016-12-30T02:42:37.821Z,81.72
2016-12-30T02:43:03.925Z,81.72
2016-12-30T02:43:30.034Z,81.63
2016-12-30T02:43:56.131Z,81.82
2016-12-30T02:44:22.231Z,81.59
2016-12-30T02:44:48.317Z,81.63
2016-12-30T02:45:14.406Z,81.63
2016-12-30T02:45:40.763Z,82.1
2016-12-30T02:46:06.857Z,81.92
2016-12-30T02:46:32.940Z,81.92
2016-12-30T02:46:59.037Z,81.4
2016-12-30T02:47:25.134Z,82.06
2016-12-30T02:47:51.227Z,82.06
2016-12-30T02:48:17.320Z,81.68
2016-12-30T02:48:43.404Z,81.49
2016-12-30T02:49:09.511Z,81.59
2016-12-30T02:49:35.600Z,82.15
2016-12-30T02:50:01.690Z,82.06
2016-12-30T02:50:27.792Z,81.87
2016-12-30T02:50:53.891Z,82.44
2016-12-30T02:51:19.980Z,82.53
2016-12-30T02:51:46.079Z,82.15
2016-12-30T02:52:12.184Z,81.96
2016-12-30T02:52:38.269Z,82.34
2016-12-30T02:53:04.363Z,82.63
2016-12-30T02:53:30.467Z,82.25
2016-12-30T02:53:56.553Z,82.25
2016-12-30T02:54:22.646Z,82.15
2016-12-30T02:54:48.744Z,82.53
2016-12-30T02:55:14.835Z,82.25
2016-12-30T02:55:40.924Z,82.53
2016-12-30T02:56:07.025Z,82.63
2016-12-30T02:56:33.112Z,82.44
2016-12-30T02:56:59.201Z,82.53
2016-12-30T02:57:25.305Z,82.25
2016-12-30T02:57:51.403Z,81.96
2016-12-30T02:58:17.493Z,82.34
2016-12-30T02:58:43.593Z,81.87
2016-12-30T02:59:09.674Z,81.68
2016-12-30T02:59:35.784Z,81.77
2016-12-30T03:00:01.876Z,81.87
2016-12-30T03:00:27.966Z,81.87
2016-12-30T03:00:54.063Z,81.59
2016-12-30T03:01:20.158Z,81.3
2016-12-30T03:01:46.246Z,81.4
2016-12-30T03:02:12.347Z,81.44
2016-12-30T03:02:38.449Z,81.25
2016-12-30T03:03:04.534Z,81.25
2016-12-30T03:03:30.631Z,81.06
2016-12-30T03:03:56.729Z,81.25
2016-12-30T03:04:22.815Z,81.15
2016-12-30T03:04:48.918Z,81.21
2016-12-30T03:05:15.002Z,81.59
2016-12-30T03:05:41.101Z,81.68
2016-12-30T03:06:07.202Z,81.87
2016-12-30T03:06:33.289Z,81.49
2016-12-30T03:06:59.387Z,81.77
2016-12-30T03:07:25.486Z,81.59
2016-12-30T03:07:51.577Z,81.49
2016-12-30T03:08:17.667Z,81.59
2016-12-30T03:08:43.775Z,81.4
2016-12-30T03:09:09.866Z,81.59
2016-12-30T03:09:35.956Z,81.59
2016-12-30T03:10:02.057Z,81.68
2016-12-30T03:10:28.148Z,82.2
2016-12-30T03:10:54.282Z,81.59
2016-12-30T03:11:20.342Z,81.96
2016-12-30T03:11:46.438Z,81.44
2016-12-30T03:12:12.541Z,81.25
2016-12-30T03:12:38.627Z,81.34
2016-12-30T03:13:04.715Z,81.06
2016-12-30T03:13:30.825Z,80.77
2016-12-30T03:13:56.914Z,80.74
2016-12-30T03:14:23.004Z,80.93
2016-12-30T03:14:49.105Z,81.25
2016-12-30T03:15:15.198Z,81.4
2016-12-30T03:15:41.285Z,81.02
2016-12-30T03:16:07.378Z,81.4
2016-12-30T03:16:33.464Z,81.44
2016-12-30T03:16:59.564Z,81.15
2016-12-30T03:17:25.658Z,81.12
2016-12-30T03:17:51.747Z,81.12
2016-12-30T03:18:17.848Z,81.02
2016-12-30T03:18:43.941Z,80.93
2016-12-30T03:19:10.033Z,81.12
2016-12-30T03:19:36.132Z,81.3
2016-12-30T03:20:02.235Z,81.3
2016-12-30T03:20:28.312Z,81.49
2016-12-30T03:20:54.412Z,81.59
2016-12-30T03:21:20.508Z,81.68
2016-12-30T03:21:46.609Z,81.87
2016-12-30T03:22:12.703Z,81.77
2016-12-30T03:22:38.789Z,81.77
2016-12-30T03:23:04.886Z,81.77
2016-12-30T03:23:30.983Z,82.06
2016-12-30T03:23:57.063Z,81.87
2016-12-30T03:24:23.159Z,82.25
2016-12-30T03:24:49.257Z,82.34
2016-12-30T03:25:15.347Z,82.06
2016-12-30T03:25:41.441Z,82.06
2016-12-30T03:26:07.548Z,81.87
2016-12-30T03:26:33.634Z,82.06
2016-12-30T03:26:59.736Z,81.68
2016-12-30T03:27:25.817Z,81.59
2016-12-30T03:27:51.912Z,82.25
2016-12-30T03:28:18.013Z,81.87
2016-12-30T03:28:44.099Z,82.44
2016-12-30T03:29:10.186Z,82.06
2016-12-30T03:29:36.290Z,81.96
2016-12-30T03:30:02.379Z,82.06
2016-12-30T03:30:28.469Z,82.34
2016-12-30T03:30:54.571Z,82.15
2016-12-30T03:31:20.666Z,82.34
2016-12-30T03:31:46.746Z,82.63
2016-12-30T03:32:12.849Z,82.34
2016-12-30T03:32:38.938Z,82.34
2016-12-30T03:33:05.047Z,82.72
2016-12-30T03:33:31.132Z,81.96
2016-12-30T03:33:57.215Z,82.63
2016-12-30T03:34:23.325Z,82.25
2016-12-30T03:34:49.420Z,82.34
2016-12-30T03:35:15.510Z,82.63
2016-12-30T03:35:41.613Z,82.15
2016-12-30T03:36:07.708Z,81.96
2016-12-30T03:36:33.794Z,82.06
2016-12-30T03:36:59.891Z,82.25
2016-12-30T03:37:25.997Z,81.59
2016-12-30T03:37:52.103Z,81.59
2016-12-30T03:38:18.193Z,81.59
2016-12-30T03:38:44.320Z,81.77
2016-12-30T03:39:10.408Z,81.68
2016-12-30T03:39:36.500Z,81.96
2016-12-30T03:40:02.634Z,81.87
2016-12-30T03:40:28.720Z,81.96
2016-12-30T03:40:54.807Z,81.77
2016-12-30T03:41:20.907Z,81.96
2016-12-30T03:41:46.999Z,81.77
2016-12-30T03:42:13.082Z,81.49
2016-12-30T03:42:39.186Z,81.87
2016-12-30T03:43:05.282Z,81.49
2016-12-30T03:43:31.381Z,81.68
2016-12-30T03:43:57.472Z,81.4
2016-12-30T03:44:23.561Z,81.87
2016-12-30T03:44:49.671Z,81.77
2016-12-30T03:45:15.761Z,81.49
2016-12-30T03:45:41.844Z,82.06
2016-12-30T03:46:07.951Z,81.49
2016-12-30T03:46:34.047Z,81.3
2016-12-30T03:47:00.139Z,81.59
2016-12-30T03:47:26.234Z,81.59
2016-12-30T03:47:52.340Z,81.3
2016-12-30T03:48:18.418Z,81.4
2016-12-30T03:48:44.517Z,81.96
2016-12-30T03:49:10.609Z,81.77
2016-12-30T03:49:36.709Z,82.15
2016-12-30T03:50:02.799Z,81.96
2016-12-30T03:50:28.886Z,81.59
2016-12-30T03:50:54.984Z,81.59
2016-12-30T03:51:21.087Z,81.59
2016-12-30T03:51:47.165Z,81.68
2016-12-30T03:52:13.265Z,81.59
2016-12-30T03:52:39.363Z,81.49
2016-12-30T03:53:05.453Z,81.68
2016-12-30T03:53:31.542Z,81.4
2016-12-30T03:53:57.648Z,81.49
2016-12-30T03:54:23.739Z,81.4
2016-12-30T03:54:49.858Z,81.96
2016-12-30T03:55:15.932Z,81.68
2016-12-30T03:55:42.026Z,81.77
2016-12-30T03:56:08.124Z,81.87
2016-12-30T03:56:34.231Z,81.96
2016-12-30T03:57:00.321Z,81.96
2016-12-30T03:57:26.422Z,81.59
2016-12-30T03:57:52.509Z,81.96
2016-12-30T03:58:18.600Z,81.4
2016-12-30T03:58:44.735Z,81.77
2016-12-30T03:59:10.826Z,81.68
2016-12-30T03:59:36.906Z,81.96
2016-12-30T04:00:03.011Z,81.87
2016-12-30T04:00:29.112Z,82.06
2016-12-30T04:00:55.233Z,81.68
2016-12-30T04:01:21.371Z,81.3
2016-12-30T04:01:47.453Z,81.59
2016-12-30T04:02:13.562Z,81.21
2016-12-30T04:02:39.660Z,81.4
2016-12-30T04:03:05.745Z,81.02
2016-12-30T04:03:31.847Z,81.12
2016-12-30T04:03:57.940Z,81.12
2016-12-30T04:04:24.031Z,81.21
2016-12-30T04:04:50.132Z,81.3
2016-12-30T04:05:16.235Z,81.49
2016-12-30T04:05:42.318Z,81.49
2016-12-30T04:06:08.410Z,81.21
2016-12-30T04:06:34.498Z,81.4
2016-12-30T04:07:00.600Z,81.68
2016-12-30T04:07:26.697Z,81.59
2016-12-30T04:07:52.780Z,81.87
2016-12-30T04:08:18.876Z,81.77
2016-12-30T04:08:44.975Z,81.59
2016-12-30T04:09:11.065Z,81.59
2016-12-30T04:09:37.161Z,81.49
2016-12-30T04:10:03.259Z,81.96
2016-12-30T04:10:29.354Z,82.25
2016-12-30T04:10:55.439Z,82.25
2016-12-30T04:11:21.532Z,82.25
2016-12-30T04:11:47.629Z,81.96
2016-12-30T04:12:13.727Z,81.96
2016-12-30T04:12:39.810Z,82.25
2016-12-30T04:13:05.911Z,81.96
2016-12-30T04:13:32.015Z,82.34
2016-12-30T04:13:58.099Z,82.25
2016-12-30T04:14:24.194Z,82.53
2016-12-30T04:14:50.296Z,82.25
2016-12-30T04:15:16.385Z,81.96
2016-12-30T04:15:42.470Z,81.96
2016-12-30T04:16:08.573Z,82.06
2016-12-30T04:16:34.664Z,81.96
2016-12-30T04:17:00.759Z,82.06
2016-12-30T04:17:26.876Z,82.34
2016-12-30T04:17:52.967Z,82.25
2016-12-30T04:18:19.072Z,81.96
2016-12-30T04:18:45.158Z,82.15
2016-12-30T04:19:11.246Z,82.06
2016-12-30T04:19:37.353Z,82.06
2016-12-30T04:20:03.441Z,82.25
2016-12-30T04:20:29.529Z,81.96
2016-12-30T04:20:55.625Z,81.87
2016-12-30T04:21:21.724Z,82.15
2016-12-30T04:21:47.816Z,81.87
2016-12-30T04:22:13.915Z,81.68
2016-12-30T04:22:40.014Z,81.68
2016-12-30T04:23:06.100Z,82.06
2016-12-30T04:23:32.200Z,82.06
2016-12-30T04:23:58.300Z,82.25
2016-12-30T04:24:24.385Z,82.06
2016-12-30T04:24:50.472Z,82.34
2016-12-30T04:25:16.579Z,82.25
2016-12-30T04:25:42.668Z,82.53
2016-12-30T04:26:08.747Z,82.44
2016-12-30T04:26:34.852Z,82.53
2016-12-30T04:27:00.942Z,82.15
2016-12-30T04:27:27.021Z,82.53
2016-12-30T04:27:53.129Z,82.44
2016-12-30T04:28:19.215Z,82.63
2016-12-30T04:28:45.317Z,82.63
2016-12-30T04:29:11.403Z,83.2
2016-12-30T04:29:37.490Z,81.87
2016-12-30T04:30:03.599Z,82.63
2016-12-30T04:30:29.693Z,82.72
2016-12-30T04:30:55.776Z,82.63
2016-12-30T04:31:21.876Z,82.63
2016-12-30T04:31:47.972Z,82.53
2016-12-30T04:32:14.057Z,82.44
2016-12-30T04:32:40.160Z,82.53
2016-12-30T04:33:06.265Z,82.34
2016-12-30T04:33:32.349Z,82.34
2016-12-30T04:33:58.444Z,82.15
2016-12-30T04:34:24.531Z,82.34
2016-12-30T04:34:50.633Z,82.53
2016-12-30T04:35:16.728Z,82.34
2016-12-30T04:35:42.809Z,82.53
2016-12-30T04:36:08.908Z,82.34
2016-12-30T04:36:35.017Z,82.25
2016-12-30T04:37:01.099Z,82.15
2016-12-30T04:37:27.196Z,81.96
2016-12-30T04:37:53.297Z,81.87
2016-12-30T04:38:19.381Z,81.96
2016-12-30T04:38:45.474Z,81.87
2016-12-30T04:39:11.571Z,82.06
2016-12-30T04:39:37.666Z,82.25
2016-12-30T04:40:03.766Z,81.87
2016-12-30T04:40:29.852Z,81.77
2016-12-30T04:40:55.949Z,81.77
2016-12-30T04:41:22.057Z,81.77
2016-12-30T04:41:48.139Z,81.59
2016-12-30T04:42:14.229Z,81.59
2016-12-30T04:42:40.327Z,81.68
2016-12-30T04:43:06.413Z,81.77
2016-12-30T04:43:32.499Z,81.12
2016-12-30T04:43:58.605Z,80.93
2016-12-30T04:44:24.694Z,81.3
2016-12-30T04:44:50.794Z,80.83
2016-12-30T04:45:16.879Z,81.02
2016-12-30T04:45:42.971Z,81.21
2016-12-30T04:46:09.076Z,81.49
2016-12-30T04:46:35.169Z,81.87
2016-12-30T04:47:01.254Z,81.77
2016-12-30T04:47:27.369Z,81.4
2016-12-30T04:47:53.458Z,81.59
2016-12-30T04:48:19.538Z,81.68
2016-12-30T04:48:45.642Z,82.34
2016-12-30T04:49:11.731Z,82.15
2016-12-30T04:49:37.821Z,82.53
2016-12-30T04:50:03.920Z,82.06
2016-12-30T04:50:30.007Z,82.34
2016-12-30T04:50:56.113Z,82.44
2016-12-30T04:51:22.207Z,82.72
2016-12-30T04:51:48.288Z,82.25
2016-12-30T04:52:14.395Z,81.96
2016-12-30T04:52:40.494Z,82.15
2016-12-30T04:53:06.584Z,82.15
2016-12-30T04:53:32.681Z,82.25
2016-12-30T04:53:58.790Z,82.25
2016-12-30T04:54:24.873Z,81.87
2016-12-30T04:54:50.968Z,82.25
2016-12-30T04:55:17.065Z,82.15
2016-12-30T04:55:43.152Z,82.53
2016-12-30T04:56:09.276Z,82.34
2016-12-30T04:56:35.339Z,82.63
2016-12-30T04:57:01.445Z,82.25
2016-12-30T04:57:27.544Z,82.25
2016-12-30T04:57:53.628Z,81.96
2016-12-30T04:58:19.721Z,81.68
2016-12-30T04:58:45.851Z,82.15
2016-12-30T04:59:11.935Z,82.53
2016-12-30T04:59:38.049Z,82.44
2016-12-30T05:00:04.148Z,82.44
2016-12-30T05:00:30.239Z,82.34
2016-12-30T05:00:56.328Z,82.53
2016-12-30T05:01:22.427Z,82.63
2016-12-30T05:01:48.525Z,82.53
2016-12-30T05:02:14.631Z,82.34
2016-12-30T05:02:40.736Z,82.25
2016-12-30T05:03:06.826Z,82.34
2016-12-30T05:03:32.931Z,82.06
2016-12-30T05:03:59.019Z,81.96
2016-12-30T05:04:25.098Z,81.96
2016-12-30T05:04:51.239Z,81.96
2016-12-30T05:05:17.331Z,82.06
2016-12-30T05:05:43.423Z,81.96
2016-12-30T05:06:09.520Z,81.87
2016-12-30T05:06:35.614Z,81.77
2016-12-30T05:07:01.700Z,81.49
2016-12-30T05:07:27.800Z,81.59
2016-12-30T05:07:53.905Z,81.59
2016-12-30T05:08:19.983Z,81.68
2016-12-30T05:08:46.080Z,81.68
2016-12-30T05:09:12.179Z,82.06
2016-12-30T05:09:38.259Z,81.4
2016-12-30T05:10:04.345Z,81.3
2016-12-30T05:10:30.451Z,81.4
2016-12-30T05:10:56.550Z,81.21
2016-12-30T05:11:22.637Z,80.55
2016-12-30T05:11:48.739Z,80.93
2016-12-30T05:12:14.851Z,80.93
2016-12-30T05:12:40.964Z,80.36
2016-12-30T05:13:07.035Z,81.12
2016-12-30T05:13:33.126Z,80.55
2016-12-30T05:13:59.227Z,80.36
2016-12-30T05:14:25.311Z,80.36
2016-12-30T05:14:51.401Z,80.36
2016-12-30T05:15:17.508Z,80.26
2016-12-30T05:15:43.604Z,80.45
2016-12-30T05:16:09.686Z,80.26
2016-12-30T05:16:35.791Z,80.55
2016-12-30T05:17:01.884Z,80.45
2016-12-30T05:17:27.975Z,80.36
2016-12-30T05:17:54.075Z,80.45
2016-12-30T05:18:20.166Z,80.36
2016-12-30T05:18:46.270Z,80.26
2016-12-30T05:19:12.364Z,80.26
2016-12-30T05:19:38.451Z,80.45
2016-12-30T05:20:04.556Z,80.36
2016-12-30T05:20:30.650Z,80.17
2016-12-30T05:20:56.734Z,80.07
2016-12-30T05:21:22.835Z,79.98
2016-12-30T05:21:48.942Z,80.55
2016-12-30T05:22:15.021Z,80.17
2016-12-30T05:22:41.118Z,80.17
2016-12-30T05:23:07.220Z,79.98
2016-12-30T05:23:33.307Z,80.74
2016-12-30T05:23:59.410Z,80.93
2016-12-30T05:24:25.496Z,81.21
2016-12-30T05:24:51.620Z,81.3
2016-12-30T05:25:17.718Z,80.83
2016-12-30T05:25:43.806Z,81.02
2016-12-30T05:26:09.903Z,81.21
2016-12-30T05:26:36.009Z,81.21
2016-12-30T05:27:02.090Z,81.3
2016-12-30T05:27:28.180Z,81.12
2016-12-30T05:27:54.280Z,81.12
2016-12-30T05:28:20.374Z,81.21
2016-12-30T05:28:46.490Z,81.21
2016-12-30T05:29:12.586Z,81.3
2016-12-30T05:29:38.679Z,81.21
2016-12-30T05:30:04.786Z,81.3
2016-12-30T05:30:30.879Z,81.3
2016-12-30T05:30:56.967Z,80.83
2016-12-30T05:31:23.065Z,81.02
2016-12-30T05:31:49.152Z,80.64
2016-12-30T05:32:45.081Z,80.74
2016-12-30T05:33:11.175Z,80.93
2016-12-30T05:33:37.281Z,80.74
2016-12-30T05:34:03.366Z,81.02
2016-12-30T05:34:29.465Z,80.74
2016-12-30T05:34:55.567Z,80.74
2016-12-30T05:35:21.651Z,80.93
2016-12-30T05:35:47.754Z,81.21
2016-12-30T05:36:13.835Z,81.12
2016-12-30T05:36:39.930Z,81.12
2016-12-30T05:37:06.031Z,81.3
2016-12-30T05:37:32.115Z,81.3